createdAt,value
2022-10-13T00:00:46.669Z,100.00
2022-10-13T00:03:13.728Z,100.00
2022-10-13T00:05:45.911Z,100.00
2022-10-13T00:08:13.952Z,100.00
2022-10-13T00:10:46.575Z,100.00
2022-10-13T00:13:13.366Z,100.00
2022-10-13T00:15:41.693Z,100.00
2022-10-13T00:18:08.267Z,100.00
2022-10-13T00:20:35.660Z,100.00
2022-10-13T00:23:02.234Z,100.00
2022-10-13T00:25:28.723Z,100.00
2022-10-13T00:27:55.332Z,100.00
2022-10-13T00:30:27.102Z,100.00
2022-10-13T00:32:53.732Z,100.00
2022-10-13T00:35:20.300Z,100.00
2022-10-13T00:37:46.865Z,100.00
2022-10-13T00:40:13.497Z,100.00
2022-10-13T00:42:41.830Z,100.00
2022-10-13T00:45:17.598Z,100.00
2022-10-13T00:47:48.291Z,100.00
2022-10-13T00:50:16.327Z,100.00
2022-10-13T00:52:46.992Z,100.00
2022-10-13T00:55:17.348Z,100.00
2022-10-13T00:57:48.027Z,100.00
2022-10-13T01:00:14.965Z,100.00
2022-10-13T01:02:41.627Z,100.00
2022-10-13T01:05:08.849Z,100.00
2022-10-13T01:07:36.121Z,100.00
2022-10-13T01:10:03.601Z,100.00
2022-10-13T01:12:50.854Z,100.00
2022-10-13T01:15:30.398Z,100.00
2022-10-13T01:18:26.868Z,100.00
2022-10-13T01:21:09.133Z,100.00
2022-10-13T01:24:10.693Z,100.00
2022-10-13T01:27:20.661Z,100.00
2022-10-13T01:30:06.112Z,100.00
2022-10-13T01:33:14.289Z,100.00
2022-10-13T01:36:15.150Z,100.00
2022-10-13T01:38:54.540Z,100.00
2022-10-13T01:41:31.866Z,100.00
2022-10-13T01:44:05.184Z,100.00
2022-10-13T01:46:38.580Z,100.00
2022-10-13T01:49:10.443Z,100.00
2022-10-13T01:51:37.918Z,100.00
2022-10-13T01:54:04.587Z,100.00
2022-10-13T01:56:31.254Z,100.00
2022-10-13T01:59:01.890Z,100.00
2022-10-13T02:01:38.106Z,100.00
2022-10-13T02:04:17.018Z,100.00
2022-10-13T02:06:50.653Z,100.00
2022-10-13T02:09:29.624Z,100.00
2022-10-13T02:12:02.297Z,100.00
2022-10-13T02:14:36.270Z,100.00
2022-10-13T02:17:05.306Z,100.00
2022-10-13T02:19:37.039Z,100.00
2022-10-13T02:22:05.403Z,100.00
2022-10-13T02:24:32.911Z,100.00
2022-10-13T02:26:59.519Z,100.00
2022-10-13T02:29:26.205Z,100.00
2022-10-13T02:31:54.862Z,100.00
2022-10-13T02:34:21.527Z,100.00
2022-10-13T02:36:48.295Z,100.00
2022-10-13T02:39:15.218Z,100.00
2022-10-13T02:41:41.811Z,100.00
2022-10-13T02:44:08.273Z,100.00
2022-10-13T02:46:40.359Z,100.00
2022-10-13T02:49:07.333Z,100.00
2022-10-13T02:51:38.995Z,100.00
2022-10-13T02:54:06.618Z,100.00
2022-10-13T02:56:33.394Z,100.00
2022-10-13T02:58:59.956Z,100.00
2022-10-13T03:01:26.697Z,100.00
2022-10-13T03:03:53.348Z,100.00
2022-10-13T03:06:19.905Z,100.00
2022-10-13T03:08:46.488Z,100.00
2022-10-13T03:11:13.026Z,100.00
2022-10-13T03:13:39.643Z,100.00
2022-10-13T03:16:06.687Z,100.00
2022-10-13T03:18:33.467Z,100.00
2022-10-13T03:21:03.331Z,100.00
2022-10-13T03:23:30.588Z,100.00
2022-10-13T03:25:57.128Z,100.00
2022-10-13T03:28:23.907Z,100.00
2022-10-13T03:30:51.232Z,100.00
2022-10-13T03:33:17.803Z,100.00
2022-10-13T03:35:44.309Z,100.00
2022-10-13T03:38:11.346Z,100.00
2022-10-13T03:40:38.752Z,100.00
2022-10-13T03:43:05.336Z,100.00
2022-10-13T03:45:31.955Z,100.00
2022-10-13T03:47:58.826Z,100.00
2022-10-13T03:50:26.212Z,100.00
2022-10-13T03:52:53.053Z,100.00
2022-10-13T03:55:19.622Z,100.00
2022-10-13T03:57:46.146Z,100.00
2022-10-13T04:00:13.532Z,100.00
2022-10-13T04:02:40.328Z,100.00
2022-10-13T04:05:07.147Z,100.00
2022-10-13T04:07:34.048Z,100.00
2022-10-13T04:10:06.898Z,100.00
2022-10-13T04:12:38.567Z,100.00
2022-10-13T04:15:05.574Z,100.00
2022-10-13T04:17:32.138Z,100.00
2022-10-13T04:19:58.695Z,100.00
2022-10-13T04:22:25.223Z,100.00
2022-10-13T04:24:51.816Z,100.00
2022-10-13T04:27:20.016Z,100.00
2022-10-13T04:29:46.618Z,100.00
2022-10-13T04:32:13.147Z,100.00
2022-10-13T04:34:39.844Z,100.00
2022-10-13T04:37:06.418Z,100.00
2022-10-13T04:39:33.501Z,100.00
2022-10-13T04:42:00.023Z,100.00
2022-10-13T04:44:26.653Z,100.00
2022-10-13T04:46:53.336Z,100.00
2022-10-13T04:49:19.891Z,100.00
2022-10-13T04:51:46.440Z,100.00
2022-10-13T04:54:13.252Z,100.00
2022-10-13T04:56:39.811Z,100.00
2022-10-13T04:59:06.434Z,100.00
2022-10-13T05:01:33.750Z,100.00
2022-10-13T05:04:02.452Z,100.00
2022-10-13T05:06:53.274Z,100.00
2022-10-13T05:09:24.266Z,100.00
2022-10-13T05:11:50.874Z,100.00
2022-10-13T05:14:17.679Z,100.00
2022-10-13T05:16:44.188Z,100.00
2022-10-13T05:19:14.812Z,100.00
2022-10-13T05:21:42.066Z,100.00
2022-10-13T05:24:13.479Z,100.00
2022-10-13T05:26:41.056Z,100.00
2022-10-13T05:29:08.067Z,100.00
2022-10-13T05:31:35.391Z,100.00
2022-10-13T05:34:02.234Z,100.00
2022-10-13T05:36:33.811Z,100.00
2022-10-13T05:39:04.147Z,100.00
2022-10-13T05:41:31.093Z,100.00
2022-10-13T05:44:00.512Z,100.00
2022-10-13T05:46:27.196Z,100.00
2022-10-13T05:48:53.723Z,100.00
2022-10-13T05:51:32.480Z,100.00
2022-10-13T05:54:10.257Z,100.00
2022-10-13T05:56:46.371Z,100.00
2022-10-13T05:59:16.375Z,100.00
2022-10-13T06:01:47.813Z,100.00
2022-10-13T06:04:20.322Z,100.00
2022-10-13T06:06:48.806Z,100.00
2022-10-13T06:09:15.963Z,100.00
2022-10-13T06:11:43.322Z,100.00
2022-10-13T06:14:09.915Z,100.00
2022-10-13T06:16:37.012Z,100.00
2022-10-13T06:19:05.573Z,100.00
2022-10-13T06:21:34.506Z,100.00
2022-10-13T06:24:01.356Z,100.00
2022-10-13T06:26:27.940Z,100.00
2022-10-13T06:28:59.140Z,100.00
2022-10-13T06:31:27.407Z,100.00
2022-10-13T06:33:54.100Z,100.00
2022-10-13T06:36:20.806Z,100.00
2022-10-13T06:38:47.447Z,100.00
2022-10-13T06:41:16.620Z,100.00
2022-10-13T06:43:43.365Z,100.00
2022-10-13T06:46:11.850Z,100.00
2022-10-13T06:48:38.761Z,100.00
2022-10-13T06:51:10.860Z,100.00
2022-10-13T06:53:38.020Z,100.00
2022-10-13T06:56:06.988Z,100.00
2022-10-13T06:58:35.294Z,100.00
2022-10-13T07:01:02.147Z,100.00
2022-10-13T07:03:28.964Z,100.00
2022-10-13T07:06:00.694Z,100.00
2022-10-13T07:08:27.548Z,100.00
2022-10-13T07:10:54.233Z,100.00
2022-10-13T07:15:48.415Z,99.17
2022-10-13T07:18:15.196Z,97.52
2022-10-13T07:20:41.712Z,95.83
2022-10-13T07:23:08.701Z,94.77
2022-10-13T07:25:35.208Z,93.64
2022-10-13T07:28:01.825Z,92.88
2022-10-13T07:30:28.403Z,91.63
2022-10-13T07:32:55.135Z,89.07
2022-10-13T07:35:23.960Z,89.45
2022-10-13T07:37:54.831Z,89.33
2022-10-13T07:40:21.435Z,88.16
2022-10-13T07:42:48.256Z,88.84
2022-10-13T07:45:15.169Z,87.73
2022-10-13T07:47:41.975Z,88.35
2022-10-13T07:50:10.200Z,88.46
2022-10-13T07:52:37.097Z,88.05
2022-10-13T07:55:05.139Z,81.92
2022-10-13T07:57:31.966Z,80.73
2022-10-13T07:59:58.584Z,78.26
2022-10-13T08:02:26.249Z,77.45
2022-10-13T08:04:52.973Z,76.81
2022-10-13T08:07:19.633Z,75.22
2022-10-13T08:09:46.534Z,76.32
2022-10-13T08:12:13.189Z,77.53
2022-10-13T08:14:39.919Z,77.41
2022-10-13T08:17:07.939Z,77.78
2022-10-13T08:19:34.917Z,78.08
2022-10-13T08:22:01.581Z,79.62
2022-10-13T08:24:29.552Z,81.41
2022-10-13T08:26:56.216Z,81.28
2022-10-13T08:29:24.180Z,82.46
2022-10-13T08:31:53.206Z,82.33
2022-10-13T08:34:21.892Z,80.46
2022-10-13T08:36:52.604Z,80.37
2022-10-13T08:39:20.027Z,79.79
2022-10-13T08:41:46.802Z,79.63
2022-10-13T08:45:02.686Z,80.01
2022-10-13T08:47:47.904Z,77.32
2022-10-13T08:50:18.401Z,77.52
2022-10-13T08:52:46.927Z,76.40
2022-10-13T08:55:24.317Z,73.91
2022-10-13T08:57:51.282Z,70.85
2022-10-13T09:00:19.458Z,68.85
2022-10-13T09:02:49.730Z,64.71
2022-10-13T09:05:41.741Z,61.16
2022-10-13T09:08:17.477Z,57.73
2022-10-13T09:10:51.174Z,56.96
2022-10-13T09:13:20.269Z,56.84
2022-10-13T09:15:50.535Z,52.99
2022-10-13T09:18:17.405Z,53.47
2022-10-13T09:20:44.116Z,52.32
2022-10-13T09:23:22.703Z,50.30
2022-10-13T09:25:51.555Z,49.44
2022-10-13T09:28:25.803Z,46.27
2022-10-13T09:31:14.135Z,44.67
2022-10-13T09:33:41.819Z,46.32
2022-10-13T09:36:17.631Z,45.60
2022-10-13T09:39:15.590Z,45.77
2022-10-13T09:41:44.950Z,48.78
2022-10-13T09:44:32.848Z,49.38
2022-10-13T09:47:03.689Z,50.13
2022-10-13T09:49:40.407Z,49.40
2022-10-13T09:52:13.112Z,48.86
2022-10-13T09:54:39.652Z,49.96
2022-10-13T09:57:34.572Z,50.24
2022-10-13T10:00:17.072Z,51.55
2022-10-13T10:03:07.155Z,51.94
2022-10-13T10:05:56.442Z,53.67
2022-10-13T10:09:02.820Z,49.96
2022-10-13T10:11:43.315Z,49.61
2022-10-13T10:14:24.853Z,51.32
2022-10-13T10:17:03.570Z,51.97
2022-10-13T10:20:12.409Z,52.80
2022-10-13T10:22:52.275Z,46.81
2022-10-13T10:25:21.858Z,48.43
2022-10-13T10:28:17.736Z,44.19
2022-10-13T10:30:53.799Z,44.17
2022-10-13T10:33:30.344Z,42.34
2022-10-13T10:36:16.729Z,44.75
2022-10-13T10:39:12.870Z,45.63
2022-10-13T10:41:49.236Z,48.80
2022-10-13T10:44:30.992Z,47.68
2022-10-13T10:47:04.154Z,48.45
2022-10-13T10:49:33.836Z,51.11
2022-10-13T10:52:03.185Z,51.96
2022-10-13T10:54:54.646Z,54.95
2022-10-13T10:57:35.713Z,54.89
2022-10-13T11:00:13.999Z,54.86
2022-10-13T11:02:44.079Z,58.11
2022-10-13T11:05:11.569Z,55.67
2022-10-13T11:07:45.412Z,55.61
2022-10-13T11:10:17.972Z,55.96
2022-10-13T11:13:15.068Z,57.17
2022-10-13T11:15:45.684Z,58.11
2022-10-13T11:18:50.029Z,53.54
2022-10-13T11:21:17.864Z,50.05
2022-10-13T11:23:47.559Z,48.12
2022-10-13T11:26:41.500Z,46.51
2022-10-13T11:29:18.169Z,48.11
2022-10-13T11:31:49.816Z,45.38
2022-10-13T11:34:28.688Z,44.60
2022-10-13T11:36:57.933Z,43.58
2022-10-13T11:39:27.932Z,44.19
2022-10-13T11:42:34.006Z,42.52
2022-10-13T11:45:32.783Z,45.33
2022-10-13T11:48:44.634Z,43.36
2022-10-13T11:51:23.780Z,46.01
2022-10-13T11:53:56.469Z,48.20
2022-10-13T11:56:34.170Z,45.07
2022-10-13T11:59:00.804Z,42.76
2022-10-13T12:01:29.669Z,42.81
2022-10-13T12:03:57.989Z,40.79
2022-10-13T12:06:36.111Z,43.82
2022-10-13T12:09:19.874Z,45.03
2022-10-13T12:11:57.669Z,45.62
2022-10-13T12:17:33.434Z,48.00
2022-10-13T12:20:03.651Z,49.65
2022-10-13T12:22:31.349Z,51.90
2022-10-13T12:25:00.098Z,53.10
2022-10-13T12:27:29.449Z,52.59
2022-10-13T12:29:57.295Z,51.59
2022-10-13T12:32:30.279Z,52.87
2022-10-13T12:35:16.261Z,53.22
2022-10-13T12:37:44.205Z,55.04
2022-10-13T12:40:16.987Z,54.39
2022-10-13T12:42:45.370Z,55.20
2022-10-13T12:45:18.844Z,55.83
2022-10-13T12:47:50.172Z,56.14
2022-10-13T12:50:35.315Z,54.22
2022-10-13T12:53:15.051Z,53.76
2022-10-13T12:55:50.658Z,52.55
2022-10-13T12:58:45.728Z,52.70
2022-10-13T13:01:13.599Z,56.00
2022-10-13T13:03:43.756Z,56.17
2022-10-13T13:06:23.916Z,52.29
2022-10-13T13:09:10.596Z,52.92
2022-10-13T13:11:38.510Z,56.21
2022-10-13T13:14:38.914Z,53.00
2022-10-13T13:17:15.449Z,54.98
2022-10-13T13:19:51.225Z,54.41
2022-10-13T13:22:19.781Z,55.01
2022-10-13T13:24:47.882Z,54.55
2022-10-13T13:27:23.664Z,56.38
2022-10-13T13:29:51.173Z,57.40
2022-10-13T13:32:20.366Z,63.60
2022-10-13T13:34:47.971Z,61.08
2022-10-13T13:37:27.255Z,60.41
2022-10-13T13:39:53.829Z,60.01
2022-10-13T13:42:20.404Z,58.69
2022-10-13T13:44:47.788Z,59.29
2022-10-13T13:47:20.865Z,59.23
2022-10-13T13:49:48.454Z,60.02
2022-10-13T13:52:15.436Z,59.41
2022-10-13T13:54:42.188Z,61.17
2022-10-13T13:57:10.776Z,60.18
2022-10-13T13:59:38.256Z,59.36
2022-10-13T14:02:06.052Z,59.13
2022-10-13T14:04:33.737Z,59.61
2022-10-13T14:07:00.433Z,60.30
2022-10-13T14:09:26.943Z,61.32
2022-10-13T14:11:53.476Z,60.01
2022-10-13T14:14:20.064Z,59.88
2022-10-13T14:16:46.564Z,60.23
2022-10-13T14:19:13.267Z,58.09
2022-10-13T14:21:41.014Z,58.97
2022-10-13T14:24:10.739Z,59.16
2022-10-13T14:26:37.421Z,59.84
2022-10-13T14:29:04.275Z,60.13
2022-10-13T14:31:31.066Z,62.01
2022-10-13T14:33:57.600Z,61.60
2022-10-13T14:36:25.348Z,62.67
2022-10-13T14:38:52.330Z,60.89
2022-10-13T14:41:19.005Z,61.69
2022-10-13T14:43:45.573Z,63.49
2022-10-13T14:46:12.202Z,66.29
2022-10-13T14:48:38.922Z,65.07
2022-10-13T14:51:10.654Z,66.52
2022-10-13T14:53:40.314Z,64.03
2022-10-13T14:56:17.708Z,67.28
2022-10-13T14:58:50.647Z,68.92
2022-10-13T15:01:19.615Z,68.63
2022-10-13T15:03:46.829Z,69.31
2022-10-13T15:06:15.581Z,70.23
2022-10-13T15:08:42.887Z,72.25
2022-10-13T15:11:10.984Z,72.40
2022-10-13T15:13:37.817Z,73.33
2022-10-13T15:16:04.963Z,71.48
2022-10-13T15:18:32.574Z,69.53
2022-10-13T15:20:59.497Z,69.43
2022-10-13T15:23:26.893Z,67.82
2022-10-13T15:25:59.186Z,67.92
2022-10-13T15:28:28.419Z,68.06
2022-10-13T15:30:55.569Z,70.88
2022-10-13T15:33:22.691Z,72.40
2022-10-13T15:35:50.529Z,69.20
2022-10-13T15:38:18.802Z,71.37
2022-10-13T15:40:46.110Z,71.08
2022-10-13T15:43:12.854Z,73.51
2022-10-13T15:45:39.815Z,72.19
2022-10-13T15:48:07.424Z,71.71
2022-10-13T15:50:34.918Z,74.94
2022-10-13T15:53:01.986Z,72.68
2022-10-13T15:55:29.618Z,77.02
2022-10-13T15:57:56.311Z,80.12
2022-10-13T16:00:22.802Z,78.83
2022-10-13T16:02:51.667Z,79.21
2022-10-13T16:05:19.426Z,76.46
2022-10-13T16:07:46.596Z,76.80
2022-10-13T16:10:14.747Z,80.28
2022-10-13T16:12:48.329Z,82.80
2022-10-13T16:15:20.151Z,81.14
2022-10-13T16:17:46.980Z,82.64
2022-10-13T16:20:14.363Z,83.36
2022-10-13T16:22:45.910Z,82.54
2022-10-13T16:25:13.205Z,84.12
2022-10-13T16:27:44.019Z,84.58
2022-10-13T16:30:12.554Z,82.24
2022-10-13T16:32:41.828Z,81.30
2022-10-13T16:35:08.902Z,80.04
2022-10-13T16:37:35.600Z,81.11
2022-10-13T16:40:02.127Z,81.95
2022-10-13T16:42:28.925Z,81.08
2022-10-13T16:44:55.430Z,81.59
2022-10-13T16:47:26.709Z,82.25
2022-10-13T16:49:53.524Z,83.84
2022-10-13T16:52:20.946Z,84.94
2022-10-13T16:54:48.045Z,85.29
2022-10-13T16:57:14.632Z,83.56
2022-10-13T16:59:41.206Z,84.99
2022-10-13T17:02:13.480Z,84.47
2022-10-13T17:04:41.921Z,85.88
2022-10-13T17:07:08.818Z,86.01
2022-10-13T17:09:35.425Z,84.73
2022-10-13T17:12:03.789Z,84.57
2022-10-13T17:14:30.546Z,82.95
2022-10-13T17:16:58.180Z,83.60
2022-10-13T17:19:25.458Z,82.47
2022-10-13T17:21:52.078Z,83.11
2022-10-13T17:24:18.803Z,83.37
2022-10-13T17:26:45.409Z,83.21
2022-10-13T17:29:12.004Z,83.07
2022-10-13T17:31:38.564Z,83.08
2022-10-13T17:34:06.157Z,83.97
2022-10-13T17:36:34.280Z,84.66
2022-10-13T17:39:09.848Z,84.93
2022-10-13T17:41:39.272Z,84.28
2022-10-13T17:44:05.810Z,85.34
2022-10-13T17:46:40.130Z,85.24
2022-10-13T17:49:10.930Z,85.78
2022-10-13T17:51:37.770Z,85.74
2022-10-13T17:54:04.570Z,86.46
2022-10-13T17:56:31.810Z,87.24
2022-10-13T17:58:59.427Z,88.46
2022-10-13T18:01:32.241Z,90.24
2022-10-13T18:04:05.472Z,90.02
2022-10-13T18:06:43.568Z,89.53
2022-10-13T18:09:16.604Z,89.57
2022-10-13T18:11:49.807Z,87.64
2022-10-13T18:14:19.165Z,86.64
2022-10-13T18:16:48.862Z,88.41
2022-10-13T18:19:15.846Z,88.54
2022-10-13T18:21:42.513Z,88.28
2022-10-13T18:24:09.579Z,87.87
2022-10-13T18:26:36.268Z,87.80
2022-10-13T18:29:05.818Z,87.75
2022-10-13T18:31:34.302Z,86.68
2022-10-13T18:34:03.047Z,87.62
2022-10-13T18:36:39.300Z,87.00
2022-10-13T18:39:15.090Z,86.67
2022-10-13T18:41:45.066Z,85.25
2022-10-13T18:44:12.053Z,84.80
2022-10-13T18:46:39.393Z,85.22
2022-10-13T18:49:07.722Z,84.81
2022-10-13T18:51:36.625Z,85.57
2022-10-13T18:54:04.025Z,85.47
2022-10-13T18:56:32.146Z,85.74
2022-10-13T18:59:00.891Z,85.25
2022-10-13T19:01:30.015Z,84.43
2022-10-13T19:03:57.224Z,84.24
2022-10-13T19:06:26.927Z,84.42
2022-10-13T19:09:00.568Z,83.94
2022-10-13T19:11:28.294Z,84.18
2022-10-13T19:13:55.045Z,85.21
2022-10-13T19:16:23.730Z,85.55
2022-10-13T19:18:50.802Z,86.75
2022-10-13T19:21:18.924Z,87.37
2022-10-13T19:23:45.605Z,88.34
2022-10-13T19:26:24.134Z,89.12
2022-10-13T19:29:02.710Z,90.45
2022-10-13T19:31:31.600Z,91.32
2022-10-13T19:33:59.633Z,91.66
2022-10-13T19:36:33.486Z,91.18
2022-10-13T19:39:05.332Z,91.96
2022-10-13T19:41:33.284Z,91.80
2022-10-13T19:44:00.460Z,91.86
2022-10-13T19:46:37.684Z,91.96
2022-10-13T19:49:05.027Z,92.66
2022-10-13T19:51:31.701Z,92.50
2022-10-13T19:53:58.275Z,91.84
2022-10-13T19:56:27.751Z,90.03
2022-10-13T19:58:54.956Z,92.05
2022-10-13T20:01:22.880Z,92.78
2022-10-13T20:03:49.900Z,92.97
2022-10-13T20:06:17.335Z,91.31
2022-10-13T20:08:45.176Z,90.78
2022-10-13T20:11:19.316Z,90.56
2022-10-13T20:13:49.074Z,92.21
2022-10-13T20:16:19.205Z,92.71
2022-10-13T20:18:58.493Z,94.28
2022-10-13T20:21:26.327Z,94.77
2022-10-13T20:23:53.098Z,94.13
2022-10-13T20:26:20.585Z,93.93
2022-10-13T20:28:48.736Z,95.74
2022-10-13T20:31:17.466Z,95.89
2022-10-13T20:33:44.192Z,96.46
2022-10-13T20:36:14.131Z,97.24
2022-10-13T20:38:40.897Z,97.50
2022-10-13T20:41:18.284Z,96.04
2022-10-13T20:43:46.128Z,95.74
2022-10-13T20:46:12.848Z,95.84
2022-10-13T20:49:05.587Z,94.96
2022-10-13T20:51:28.091Z,93.85
2022-10-13T20:53:54.673Z,94.84
2022-10-13T20:56:23.323Z,95.49
2022-10-13T20:58:50.724Z,95.71
2022-10-13T21:01:18.981Z,95.79
2022-10-13T21:03:46.341Z,95.04
2022-10-13T21:06:14.500Z,95.01
2022-10-13T21:08:45.709Z,94.56
2022-10-13T21:11:14.974Z,95.63
2022-10-13T21:13:43.692Z,96.11
2022-10-13T21:16:16.217Z,96.62
2022-10-13T21:18:50.274Z,96.74
2022-10-13T21:21:22.053Z,97.68
2022-10-13T21:23:58.491Z,97.09
2022-10-13T21:26:27.534Z,96.51
2022-10-13T21:28:54.219Z,96.10
2022-10-13T21:31:22.968Z,95.28
2022-10-13T21:33:50.214Z,96.76
2022-10-13T21:36:23.256Z,100.00
2022-10-13T21:38:56.328Z,100.00
2022-10-13T21:41:23.829Z,100.00
2022-10-13T21:43:51.839Z,100.00
2022-10-13T21:46:28.089Z,100.00
2022-10-13T21:48:57.158Z,100.00
2022-10-13T21:51:29.598Z,100.00
2022-10-13T21:54:02.234Z,100.00
2022-10-13T21:56:30.587Z,100.00
2022-10-13T21:58:59.126Z,100.00
2022-10-13T22:01:26.081Z,100.00
2022-10-13T22:03:55.251Z,100.00
2022-10-13T22:06:33.703Z,100.00
2022-10-13T22:09:02.241Z,100.00
2022-10-13T22:11:31.780Z,100.00
2022-10-13T22:14:02.979Z,100.00
2022-10-13T22:16:33.155Z,100.00
2022-10-13T22:18:59.746Z,100.00
2022-10-13T22:21:29.375Z,100.00
2022-10-13T22:24:01.596Z,100.00
2022-10-13T22:26:35.278Z,100.00
2022-10-13T22:29:04.340Z,100.00
2022-10-13T22:31:33.112Z,100.00
2022-10-13T22:34:05.587Z,100.00
2022-10-13T22:36:32.147Z,100.00
2022-10-13T22:39:02.910Z,100.00
2022-10-13T22:41:30.663Z,100.00
2022-10-13T22:43:58.769Z,100.00
2022-10-13T22:46:31.833Z,100.00
2022-10-13T22:48:59.344Z,100.00
2022-10-13T22:51:28.980Z,100.00
2022-10-13T22:53:56.637Z,100.00
2022-10-13T22:56:26.060Z,100.00
2022-10-13T22:59:02.721Z,100.00
2022-10-13T23:01:29.552Z,100.00
2022-10-13T23:03:58.496Z,100.00
2022-10-13T23:06:28.188Z,100.00
2022-10-13T23:08:55.159Z,100.00
2022-10-13T23:11:22.742Z,100.00
2022-10-13T23:13:49.572Z,100.00
2022-10-13T23:16:22.551Z,100.00
2022-10-13T23:18:49.611Z,100.00
2022-10-13T23:21:26.149Z,100.00
2022-10-13T23:24:01.131Z,100.00
2022-10-13T23:26:28.760Z,100.00
2022-10-13T23:28:57.111Z,100.00
2022-10-13T23:31:25.307Z,100.00
2022-10-13T23:33:52.030Z,100.00
2022-10-13T23:36:23.925Z,100.00
2022-10-13T23:38:55.458Z,100.00
2022-10-13T23:41:22.306Z,100.00
2022-10-13T23:43:48.822Z,100.00
2022-10-13T23:46:15.615Z,100.00
2022-10-13T23:48:42.212Z,100.00
2022-10-13T23:51:14.214Z,100.00
2022-10-13T23:53:41.857Z,100.00
2022-10-13T23:56:09.920Z,100.00
2022-10-13T23:58:38.345Z,100.00
